Pagrindinis puslapis
METAR-TAF:

METAR-TAF

Oro uostai :

Evenes, Norvegija

platuma: 68-31N, ilguma: 016-41E, Aukštis: 26 m

Dabartinis oras

Ataskaita buvo paskelbta 22 minutes, ne 03:20 UTC
Ramus vėjas
Temperatūra -13°C
Drėgmė 78%
Slėgis 993 hPa
Matomumas 10 km arba daugiau

METAR: ENEV 010320Z AUTO 00000KT 9999 NCD M13/M16 Q0993 RMK WIND 1400FT 11010KT

Laikas: 04:42 (03:42 UTC)

Prognozė

Ataskaita buvo paskelbta 1 valandą ir 42 minutes, ne 02:00 UTC
Prognozė galioja nuo 01 metu 03 UTC su 01 metu 12 UTC
Vėjas 3 kt nuo kintamojo kryptimis
Matomumas 10 km arba daugiau
nėra debesų žemiau 1500 m ir nėra kamuolinių lietaus debesų

TAF: ENEV 010200Z 0103/0112 VRB03KT CAVOK

Orai ataskaitas ir orų prognozės (METAR, TAF).

turimą stotys yra geltonos ir raudonos taškus žemėlapyje.

Perkelti pele per norėdami pamatyti stoties vardą.

Tada spustelėkite, norėdami matyti oro stebėjimo ir prognozės.

Norėdami pakeisti žemėlapį: spustelėkite ant žalios mygtukų su juodo kryžiaus žemyn,; žalią mygtuką su brūkšneliu, jei norite nutolinti; arba žalių rodyklių gretimoms žemėlapius.


METAR-TAF: